createdAt,value
2023-01-28T00:00:22.950Z,100460.13
2023-01-28T00:01:06.628Z,100503.44
2023-01-28T00:01:48.335Z,100494.38
2023-01-28T00:02:30.896Z,100497.00
2023-01-28T00:03:12.629Z,100486.31
2023-01-28T00:03:54.343Z,100496.28
2023-01-28T00:04:36.094Z,100500.13
2023-01-28T00:05:17.809Z,100486.91
2023-01-28T00:06:04.140Z,100500.00
2023-01-28T00:06:45.960Z,100475.00
2023-01-28T00:07:27.624Z,100491.44
2023-01-28T00:08:10.232Z,100480.47
2023-01-28T00:08:51.914Z,100464.63
2023-01-28T00:09:33.538Z,100489.88
2023-01-28T00:10:15.529Z,100486.31
2023-01-28T00:11:06.436Z,100485.34
2023-01-28T00:11:48.154Z,100479.63
2023-01-28T00:12:29.796Z,100480.00
2023-01-28T00:13:15.901Z,100454.88
2023-01-28T00:13:57.968Z,100465.56
2023-01-28T00:14:39.927Z,100464.75
2023-01-28T00:15:21.619Z,100474.88
2023-01-28T00:16:06.214Z,100463.56
2023-01-28T00:16:47.991Z,100453.81
2023-01-28T00:17:29.715Z,100474.38
2023-01-28T00:18:11.590Z,100462.13
2023-01-28T00:18:54.070Z,100467.25
2023-01-28T00:19:35.782Z,100447.84
2023-01-28T00:20:17.481Z,100462.84
2023-01-28T00:21:02.027Z,100469.75
2023-01-28T00:21:43.693Z,100450.47
2023-01-28T00:22:25.330Z,100441.41
2023-01-28T00:23:07.387Z,100466.41
2023-01-28T00:23:56.628Z,100468.91
2023-01-28T00:24:38.343Z,100471.75
2023-01-28T00:25:20.259Z,100441.69
2023-01-28T00:26:05.587Z,100444.19
2023-01-28T00:26:47.233Z,100469.97
2023-01-28T00:27:28.929Z,100449.75
2023-01-28T00:28:13.071Z,100466.41
2023-01-28T00:28:54.743Z,100442.97
2023-01-28T00:29:36.578Z,100475.09
2023-01-28T00:30:19.379Z,100468.91
2023-01-28T00:31:08.382Z,100472.25
2023-01-28T00:31:50.141Z,100467.03
2023-01-28T00:32:31.849Z,100448.69
2023-01-28T00:33:13.505Z,100467.03
2023-01-28T00:33:56.615Z,100467.03
2023-01-28T00:34:38.269Z,100461.91
2023-01-28T00:35:22.336Z,100439.78
2023-01-28T00:36:06.437Z,100388.00
2023-01-28T00:36:57.224Z,100445.47
2023-01-28T00:37:39.018Z,100449.75
2023-01-28T00:38:20.638Z,100465.25
2023-01-28T00:39:02.345Z,100447.47
2023-01-28T00:39:44.069Z,100462.97
2023-01-28T00:40:25.826Z,100468.81
2023-01-28T00:41:12.789Z,100472.97
2023-01-28T00:41:54.606Z,100461.91
2023-01-28T00:42:39.487Z,100471.66
2023-01-28T00:43:21.825Z,100462.50
2023-01-28T00:44:03.624Z,100439.63
2023-01-28T00:44:45.263Z,100468.56
2023-01-28T00:45:26.964Z,100444.41
2023-01-28T00:46:12.091Z,100470.25
2023-01-28T00:46:53.895Z,100449.66
2023-01-28T00:47:37.161Z,100445.81
2023-01-28T00:48:18.796Z,100471.19
2023-01-28T00:49:01.894Z,100469.88
2023-01-28T00:49:43.571Z,100464.88
2023-01-28T00:50:25.213Z,100455.84
2023-01-28T00:51:12.248Z,100472.88
2023-01-28T00:51:53.989Z,100466.31
2023-01-28T00:52:35.654Z,100443.91
2023-01-28T00:53:17.373Z,100464.88
2023-01-28T00:54:00.163Z,100467.59
2023-01-28T00:54:42.039Z,100442.97
2023-01-28T00:55:23.718Z,100475.22
2023-01-28T00:56:07.519Z,100453.66
2023-01-28T00:56:49.157Z,100450.34
2023-01-28T00:57:30.843Z,100474.88
2023-01-28T00:58:12.512Z,100476.56
2023-01-28T00:58:54.421Z,100472.00
2023-01-28T00:59:36.044Z,100437.50
2023-01-28T01:00:21.803Z,100468.69
2023-01-28T01:01:24.665Z,100465.34
2023-01-28T01:02:12.525Z,100470.94
2023-01-28T01:02:54.445Z,100478.91
2023-01-28T01:03:38.023Z,100484.16
2023-01-28T01:04:26.652Z,100482.25
2023-01-28T01:05:08.727Z,100475.59
2023-01-28T01:05:50.395Z,100478.69
2023-01-28T01:06:38.833Z,100482.84
2023-01-28T01:07:32.391Z,100482.75
2023-01-28T01:08:14.147Z,100476.28
2023-01-28T01:08:55.896Z,100447.50
2023-01-28T01:09:37.561Z,100474.75
2023-01-28T01:10:19.836Z,100481.41
2023-01-28T01:11:03.080Z,100464.63
2023-01-28T01:11:46.304Z,100446.44
2023-01-28T01:12:28.738Z,100477.13
2023-01-28T01:13:10.475Z,100485.34
2023-01-28T01:13:55.135Z,100473.09
2023-01-28T01:14:36.726Z,100462.25
2023-01-28T01:15:19.546Z,100476.31
2023-01-28T01:16:16.491Z,100462.59
2023-01-28T01:16:58.188Z,100473.44
2023-01-28T01:17:42.180Z,100451.53
2023-01-28T01:18:23.803Z,100476.75
2023-01-28T01:19:06.180Z,100476.75
2023-01-28T01:19:47.868Z,100470.09
2023-01-28T01:20:33.437Z,100461.41
2023-01-28T01:21:17.726Z,100462.25
2023-01-28T01:22:00.157Z,100453.94
2023-01-28T01:22:41.834Z,100476.66
2023-01-28T01:23:23.452Z,100433.00
2023-01-28T01:24:05.435Z,100462.59
2023-01-28T01:24:48.068Z,100456.16
2023-01-28T01:25:29.956Z,100437.50
2023-01-28T01:26:12.095Z,100435.84
2023-01-28T01:26:53.752Z,100471.06
2023-01-28T01:27:36.616Z,100444.53
2023-01-28T01:28:18.724Z,100467.75
2023-01-28T01:29:00.353Z,100448.22
2023-01-28T01:29:44.893Z,100476.66
2023-01-28T01:30:27.508Z,100431.66
2023-01-28T01:31:14.605Z,100472.72
2023-01-28T01:31:56.368Z,100473.78
2023-01-28T01:32:38.395Z,100447.38
2023-01-28T01:33:20.108Z,100450.81
2023-01-28T01:34:01.788Z,100458.19
2023-01-28T01:34:43.405Z,100479.38
2023-01-28T01:35:26.033Z,100477.72
2023-01-28T01:36:08.736Z,100449.38
2023-01-28T01:36:50.446Z,100469.03
2023-01-28T01:37:32.441Z,100476.28
2023-01-28T01:38:14.256Z,100442.47
2023-01-28T01:38:56.228Z,100474.59
2023-01-28T01:39:37.835Z,100473.88
2023-01-28T01:40:19.503Z,100459.84
2023-01-28T01:41:02.014Z,100472.72
2023-01-28T01:41:43.930Z,100477.00
2023-01-28T01:42:25.880Z,100450.31
2023-01-28T01:43:22.820Z,100476.53
2023-01-28T01:44:06.049Z,100475.44
2023-01-28T01:44:59.687Z,100474.38
2023-01-28T01:45:41.609Z,100471.16
2023-01-28T01:46:36.681Z,100470.69
2023-01-28T01:47:19.073Z,100474.38
2023-01-28T01:48:06.082Z,100435.22
2023-01-28T01:48:48.545Z,100468.44
2023-01-28T01:49:30.188Z,100478.69
2023-01-28T01:50:23.318Z,100447.47
2023-01-28T01:51:11.681Z,100469.38
2023-01-28T01:52:13.222Z,100473.44
2023-01-28T01:52:57.672Z,100471.66
2023-01-28T01:53:44.078Z,100469.03
2023-01-28T01:54:28.731Z,100449.88
2023-01-28T01:55:19.109Z,100474.75
2023-01-28T01:56:05.682Z,100472.25
2023-01-28T01:56:50.481Z,100461.28
2023-01-28T01:57:36.097Z,100461.53
2023-01-28T01:58:21.417Z,100450.59
2023-01-28T01:59:03.821Z,100475.59
2023-01-28T01:59:47.778Z,100442.50
2023-01-28T02:00:29.548Z,100446.53
2023-01-28T02:01:11.812Z,100460.84
2023-01-28T02:01:56.493Z,100478.09
2023-01-28T02:02:40.344Z,100476.28
2023-01-28T02:03:29.657Z,100468.81
2023-01-28T02:04:19.286Z,100476.16
2023-01-28T02:05:00.991Z,100453.94
2023-01-28T02:05:43.798Z,100486.53
2023-01-28T02:06:26.654Z,100468.31
2023-01-28T02:07:11.052Z,100474.50
2023-01-28T02:08:18.780Z,100473.66
2023-01-28T02:09:00.687Z,100447.03
2023-01-28T02:09:42.395Z,100447.75
2023-01-28T02:10:26.316Z,100478.69
2023-01-28T02:11:10.381Z,100466.31
2023-01-28T02:11:56.513Z,100472.50
2023-01-28T02:12:42.561Z,100472.59
2023-01-28T02:13:29.057Z,100476.06
2023-01-28T02:14:14.489Z,100462.38
2023-01-28T02:15:01.629Z,100471.06
2023-01-28T02:15:45.375Z,100482.97
2023-01-28T02:16:28.525Z,100479.50
2023-01-28T02:17:10.811Z,100481.28
2023-01-28T02:17:52.843Z,100471.66
2023-01-28T02:18:36.037Z,100480.34
2023-01-28T02:19:22.318Z,100458.56
2023-01-28T02:20:32.721Z,100482.84
2023-01-28T02:21:14.279Z,100482.97
2023-01-28T02:22:07.357Z,100477.72
2023-01-28T02:23:19.788Z,100482.13
2023-01-28T02:24:07.575Z,100482.97
2023-01-28T02:25:02.492Z,100489.88
2023-01-28T02:26:03.862Z,100482.00
2023-01-28T02:26:58.383Z,100477.72
2023-01-28T02:28:10.771Z,100482.97
2023-01-28T02:29:04.550Z,100481.66
2023-01-28T02:29:56.228Z,100485.59
2023-01-28T02:30:44.196Z,100484.28
2023-01-28T02:31:38.932Z,100487.72
2023-01-28T02:32:29.468Z,100484.97
2023-01-28T02:33:34.782Z,100489.16
2023-01-28T02:34:31.775Z,100489.88
2023-01-28T02:35:27.897Z,100485.34
2023-01-28T02:36:17.827Z,100451.16
2023-01-28T02:37:16.604Z,100469.25
2023-01-28T02:38:09.776Z,100483.19
2023-01-28T02:38:54.829Z,100473.09
2023-01-28T02:39:42.590Z,100461.28
2023-01-28T02:40:34.250Z,100491.19
2023-01-28T02:41:31.765Z,100485.94
2023-01-28T02:42:27.187Z,100486.91
2023-01-28T02:43:08.999Z,100491.44
2023-01-28T02:43:51.144Z,100469.53
2023-01-28T02:44:33.503Z,100467.25
2023-01-28T02:45:24.066Z,100474.66
2023-01-28T02:46:44.885Z,100495.81
2023-01-28T02:47:44.991Z,100483.47
2023-01-28T02:48:26.699Z,100499.16
2023-01-28T02:49:13.294Z,100475.34
2023-01-28T02:49:59.537Z,100420.13
2023-01-28T02:51:00.817Z,100496.41
2023-01-28T02:52:08.055Z,100489.03
2023-01-28T02:53:36.054Z,100494.97
2023-01-28T02:54:46.621Z,100489.00
2023-01-28T02:55:55.210Z,100496.88
2023-01-28T02:57:00.505Z,100491.41
2023-01-28T02:58:07.899Z,100495.09
2023-01-28T02:59:21.668Z,100500.00
2023-01-28T03:00:22.035Z,100497.72
2023-01-28T03:01:33.918Z,100500.84
2023-01-28T03:02:31.955Z,100474.16
2023-01-28T03:03:29.254Z,100468.94
2023-01-28T03:04:16.364Z,100486.31
2023-01-28T03:05:30.817Z,100492.50
2023-01-28T03:06:18.327Z,100494.16
2023-01-28T03:07:05.572Z,100452.59
2023-01-28T03:07:48.415Z,100500.00
2023-01-28T03:08:55.468Z,100482.97
2023-01-28T03:09:40.738Z,100480.47
2023-01-28T03:10:26.498Z,100392.19
2023-01-28T03:11:26.703Z,100495.47
2023-01-28T03:12:31.221Z,100474.28
2023-01-28T03:13:31.426Z,100432.16
2023-01-28T03:14:33.167Z,100489.25
2023-01-28T03:15:44.679Z,100496.06
2023-01-28T03:16:45.785Z,100497.13
2023-01-28T03:17:57.624Z,100489.53
2023-01-28T03:19:06.659Z,100484.53
2023-01-28T03:20:07.386Z,100496.44
2023-01-28T03:21:27.313Z,100492.59
2023-01-28T03:22:29.526Z,100472.84
2023-01-28T03:23:36.278Z,100465.81
2023-01-28T03:24:42.558Z,100480.94
2023-01-28T03:25:46.284Z,100494.38
2023-01-28T03:26:54.719Z,100498.44
2023-01-28T03:28:20.579Z,100471.44
2023-01-28T03:29:26.686Z,100480.56
2023-01-28T03:30:35.131Z,100485.97
2023-01-28T03:31:43.135Z,100495.47
2023-01-28T03:32:46.793Z,100492.03
2023-01-28T03:33:50.524Z,100492.03
2023-01-28T03:34:51.652Z,100495.94
2023-01-28T03:35:54.657Z,100460.00
2023-01-28T03:36:53.171Z,100501.06
2023-01-28T03:37:51.759Z,100487.97
2023-01-28T03:38:43.690Z,100495.81
2023-01-28T03:39:30.749Z,100499.28
2023-01-28T03:40:13.065Z,100475.00
2023-01-28T03:41:02.829Z,100491.53
2023-01-28T03:42:04.209Z,100501.78
2023-01-28T03:42:45.904Z,100484.50
2023-01-28T03:43:45.406Z,100474.75
2023-01-28T03:44:46.330Z,100496.41
2023-01-28T03:45:27.998Z,100497.25
2023-01-28T03:46:09.968Z,100458.22
2023-01-28T03:46:51.878Z,100505.94
2023-01-28T03:47:34.092Z,100495.81
2023-01-28T03:48:22.181Z,100504.16
2023-01-28T03:49:03.878Z,100500.59
2023-01-28T03:49:51.561Z,100494.28
2023-01-28T03:50:35.081Z,100497.97
2023-01-28T03:51:17.953Z,100474.75
2023-01-28T03:51:59.704Z,100500.84
2023-01-28T03:52:41.503Z,100505.00
2023-01-28T03:53:43.986Z,100497.97
2023-01-28T03:54:26.111Z,100509.75
2023-01-28T03:55:14.178Z,100505.34
2023-01-28T03:55:56.832Z,100505.56
2023-01-28T03:56:40.165Z,100516.53
2023-01-28T03:57:25.008Z,100514.25
2023-01-28T03:58:06.774Z,100513.81
2023-01-28T03:58:54.119Z,100515.59
2023-01-28T03:59:35.821Z,100502.22
2023-01-28T04:00:18.483Z,100496.16
2023-01-28T04:01:00.260Z,100520.84
2023-01-28T04:01:41.977Z,100515.59
2023-01-28T04:02:25.176Z,100481.28
2023-01-28T04:03:15.861Z,100502.63
2023-01-28T04:03:59.689Z,100500.84
2023-01-28T04:04:42.885Z,100438.94
2023-01-28T04:05:25.887Z,100502.72
2023-01-28T04:06:10.207Z,100508.56
2023-01-28T04:07:10.509Z,100506.66
2023-01-28T04:08:21.233Z,100517.38
2023-01-28T04:09:25.972Z,100521.78
2023-01-28T04:10:40.459Z,100494.88
2023-01-28T04:11:39.547Z,100515.09
2023-01-28T04:12:23.583Z,100517.50
2023-01-28T04:13:07.218Z,100491.78
2023-01-28T04:13:49.285Z,100520.97
2023-01-28T04:14:32.921Z,100518.44
2023-01-28T04:15:24.602Z,100517.97
2023-01-28T04:16:06.396Z,100519.16
2023-01-28T04:16:56.845Z,100487.97
2023-01-28T04:17:40.170Z,100517.50
2023-01-28T04:18:27.391Z,100490.69
2023-01-28T04:19:15.291Z,100520.34
2023-01-28T04:19:57.733Z,100519.03
2023-01-28T04:20:40.380Z,100523.31
2023-01-28T04:21:22.105Z,100526.03
2023-01-28T04:22:06.121Z,100490.59
2023-01-28T04:22:48.247Z,100515.81
2023-01-28T04:23:30.991Z,100525.81
2023-01-28T04:24:12.819Z,100491.53
2023-01-28T04:24:54.502Z,100506.03
2023-01-28T04:25:36.332Z,100524.53
2023-01-28T04:26:21.251Z,100521.78
2023-01-28T04:27:03.492Z,100517.97
2023-01-28T04:27:45.856Z,100496.88
2023-01-28T04:28:36.411Z,100509.63
2023-01-28T04:29:18.124Z,100498.28
2023-01-28T04:29:59.869Z,100501.28
2023-01-28T04:31:07.767Z,100532.50
2023-01-28T04:32:11.604Z,100519.38
2023-01-28T04:33:16.675Z,100538.78
2023-01-28T04:34:17.357Z,100531.53
2023-01-28T04:35:18.270Z,100538.66
2023-01-28T04:36:18.532Z,100511.38
2023-01-28T04:37:18.856Z,100539.97
2023-01-28T04:38:20.812Z,100522.44
2023-01-28T04:39:21.029Z,100514.13
2023-01-28T04:40:28.633Z,100525.56
2023-01-28T04:41:13.197Z,100512.19
2023-01-28T04:41:54.851Z,100527.81
2023-01-28T04:42:54.160Z,100537.72
2023-01-28T04:44:05.068Z,100538.44
2023-01-28T04:45:04.217Z,100536.78
2023-01-28T04:46:07.035Z,100542.47
2023-01-28T04:46:55.945Z,100513.28
2023-01-28T04:47:55.914Z,100543.53
2023-01-28T04:49:06.463Z,100545.19
2023-01-28T04:50:07.023Z,100545.41
2023-01-28T04:51:11.554Z,100547.44
2023-01-28T04:52:00.891Z,100549.34
2023-01-28T04:53:08.492Z,100550.28
2023-01-28T04:53:54.771Z,100537.06
2023-01-28T04:54:41.875Z,100544.22
2023-01-28T04:55:23.921Z,100547.78
2023-01-28T04:56:05.830Z,100547.56
2023-01-28T04:56:49.567Z,100524.53
2023-01-28T04:57:31.242Z,100550.91
2023-01-28T04:58:13.657Z,100543.38
2023-01-28T04:58:56.966Z,100523.97
2023-01-28T04:59:38.991Z,100552.31
2023-01-28T05:00:21.188Z,100517.66
2023-01-28T05:01:02.983Z,100543.38
2023-01-28T05:01:45.654Z,100516.00
2023-01-28T05:02:27.390Z,100513.72
2023-01-28T05:03:09.041Z,100551.47
2023-01-28T05:03:51.069Z,100547.19
2023-01-28T05:04:39.370Z,100500.84
2023-01-28T05:05:23.843Z,100532.56
2023-01-28T05:06:14.404Z,100547.56
2023-01-28T05:07:00.505Z,100545.66
2023-01-28T05:07:54.360Z,100552.56
2023-01-28T05:08:36.058Z,100546.50
2023-01-28T05:09:17.783Z,100519.09
2023-01-28T05:09:59.428Z,100551.50
2023-01-28T05:10:43.881Z,100538.75
2023-01-28T05:11:25.605Z,100489.34
2023-01-28T05:12:12.540Z,100524.84
2023-01-28T05:12:55.326Z,100545.81
2023-01-28T05:13:37.137Z,100549.59
2023-01-28T05:14:19.395Z,100527.09
2023-01-28T05:15:07.841Z,100549.50
2023-01-28T05:15:53.523Z,100534.38
2023-01-28T05:16:36.061Z,100543.06
2023-01-28T05:17:18.713Z,100509.94
2023-01-28T05:18:00.821Z,100547.69
2023-01-28T05:18:48.146Z,100558.16
2023-01-28T05:19:31.828Z,100563.41
2023-01-28T05:20:15.268Z,100553.78
2023-01-28T05:20:58.502Z,100547.69
2023-01-28T05:21:40.658Z,100549.38
2023-01-28T05:22:46.343Z,100539.00
2023-01-28T05:23:36.633Z,100521.47
2023-01-28T05:24:18.384Z,100534.69
2023-01-28T05:25:00.133Z,100519.38
2023-01-28T05:25:41.812Z,100554.72
2023-01-28T05:26:23.846Z,100557.44
2023-01-28T05:27:05.467Z,100552.69
2023-01-28T05:27:51.862Z,100549.00
2023-01-28T05:28:33.553Z,100552.31
2023-01-28T05:29:16.309Z,100554.81
2023-01-28T05:29:58.872Z,100553.16
2023-01-28T05:30:40.713Z,100550.19
2023-01-28T05:31:22.430Z,100540.78
2023-01-28T05:32:04.942Z,100548.19
2023-01-28T05:32:47.561Z,100546.63
2023-01-28T05:33:31.556Z,100553.53
2023-01-28T05:34:13.648Z,100544.75
2023-01-28T05:34:55.315Z,100547.25
2023-01-28T05:35:37.003Z,100539.84
2023-01-28T05:36:19.249Z,100526.97
2023-01-28T05:37:01.046Z,100554.72
2023-01-28T05:37:45.919Z,100560.81
2023-01-28T05:38:28.204Z,100543.91
2023-01-28T05:39:09.917Z,100534.72
2023-01-28T05:39:51.705Z,100532.22
2023-01-28T05:40:33.387Z,100558.91
2023-01-28T05:41:15.335Z,100544.97
2023-01-28T05:41:59.105Z,100529.25
2023-01-28T05:42:43.885Z,100550.81
2023-01-28T05:43:44.291Z,100565.09
2023-01-28T05:44:44.651Z,100567.94
2023-01-28T05:45:44.728Z,100566.53
2023-01-28T05:46:37.608Z,100547.78
2023-01-28T05:47:30.547Z,100563.75
2023-01-28T05:48:20.565Z,100570.31
2023-01-28T05:49:28.160Z,100565.91
2023-01-28T05:50:30.126Z,100571.88
2023-01-28T05:51:31.625Z,100561.13
2023-01-28T05:52:13.868Z,100574.00
2023-01-28T05:52:55.598Z,100573.88
2023-01-28T05:53:42.014Z,100574.81
2023-01-28T05:54:23.760Z,100564.94
2023-01-28T05:55:06.424Z,100576.72
2023-01-28T05:55:53.443Z,100580.19
2023-01-28T05:56:36.459Z,100545.53
2023-01-28T05:57:18.271Z,100570.53
2023-01-28T05:57:59.972Z,100564.09
2023-01-28T05:58:41.720Z,100580.56
2023-01-28T05:59:23.849Z,100583.91
2023-01-28T06:00:08.688Z,100540.66
2023-01-28T06:00:56.536Z,100555.88
2023-01-28T06:01:43.746Z,100566.97
2023-01-28T06:02:25.432Z,100580.81
2023-01-28T06:03:10.628Z,100581.75
2023-01-28T06:03:52.343Z,100588.44
2023-01-28T06:04:34.275Z,100578.19
2023-01-28T06:05:16.075Z,100571.88
2023-01-28T06:05:58.076Z,100592.63
2023-01-28T06:06:39.753Z,100589.88
2023-01-28T06:07:21.418Z,100587.25
2023-01-28T06:08:03.844Z,100594.50
2023-01-28T06:08:45.513Z,100557.44
2023-01-28T06:09:30.436Z,100564.84
2023-01-28T06:10:12.957Z,100595.56
2023-01-28T06:10:54.840Z,100580.91
2023-01-28T06:11:38.618Z,100605.22
2023-01-28T06:12:20.919Z,100590.94
2023-01-28T06:13:28.136Z,100600.31
2023-01-28T06:14:28.463Z,100566.13
2023-01-28T06:15:41.994Z,100570.41
2023-01-28T06:16:52.886Z,100569.56
2023-01-28T06:17:39.840Z,100603.75
2023-01-28T06:18:28.909Z,100590.66
2023-01-28T06:19:10.595Z,100610.31
2023-01-28T06:19:52.687Z,100605.06
2023-01-28T06:20:34.409Z,100592.78
2023-01-28T06:21:16.411Z,100608.88
2023-01-28T06:21:58.556Z,100601.38
2023-01-28T06:22:40.325Z,100608.88
2023-01-28T06:23:22.052Z,100581.34
2023-01-28T06:24:04.083Z,100609.47
2023-01-28T06:24:45.864Z,100613.66
2023-01-28T06:25:27.567Z,100617.00
2023-01-28T06:26:10.539Z,100604.25
2023-01-28T06:26:55.411Z,100616.75
2023-01-28T06:27:37.304Z,100618.31
2023-01-28T06:28:18.995Z,100615.22
2023-01-28T06:29:00.914Z,100614.63
2023-01-28T06:29:42.652Z,100618.19
2023-01-28T06:30:24.258Z,100622.16
2023-01-28T06:31:06.466Z,100624.63
2023-01-28T06:31:48.203Z,100624.41
2023-01-28T06:32:29.957Z,100611.78
2023-01-28T06:33:11.599Z,100619.88
2023-01-28T06:33:53.265Z,100625.97
2023-01-28T06:34:34.948Z,100596.06
2023-01-28T06:35:16.661Z,100594.13
2023-01-28T06:35:58.327Z,100604.16
2023-01-28T06:36:39.976Z,100633.72
2023-01-28T06:37:21.641Z,100620.50
2023-01-28T06:38:04.568Z,100630.88
2023-01-28T06:38:46.559Z,100612.25
2023-01-28T06:39:31.752Z,100626.56
2023-01-28T06:40:13.966Z,100612.47
2023-01-28T06:40:56.129Z,100625.00
2023-01-28T06:41:37.956Z,100628.25
2023-01-28T06:42:19.577Z,100628.25
2023-01-28T06:43:01.207Z,100599.13
2023-01-28T06:43:42.837Z,100635.00
2023-01-28T06:44:24.611Z,100627.97
2023-01-28T06:45:06.731Z,100631.34
2023-01-28T06:45:48.504Z,100624.31
2023-01-28T06:46:30.261Z,100628.81
2023-01-28T06:47:12.037Z,100626.81
2023-01-28T06:47:53.719Z,100617.75
2023-01-28T06:48:35.382Z,100636.94
2023-01-28T06:49:17.182Z,100627.66
2023-01-28T06:49:58.939Z,100636.84
2023-01-28T06:50:40.583Z,100632.41
2023-01-28T06:51:22.269Z,100623.47
2023-01-28T06:52:04.583Z,100623.69
2023-01-28T06:52:46.222Z,100640.03
2023-01-28T06:53:27.887Z,100634.78
2023-01-28T06:54:09.514Z,100631.69
2023-01-28T06:54:51.189Z,100642.75
2023-01-28T06:55:32.809Z,100640.03
2023-01-28T06:56:15.282Z,100645.25
2023-01-28T06:56:57.001Z,100642.66
2023-01-28T06:57:40.296Z,100645.16
2023-01-28T06:58:21.962Z,100621.16
2023-01-28T06:59:03.666Z,100639.41
2023-01-28T06:59:45.273Z,100643.59
2023-01-28T07:00:26.866Z,100638.94
2023-01-28T07:01:10.689Z,100651.69
2023-01-28T07:01:52.362Z,100634.53
2023-01-28T07:02:34.148Z,100645.13
2023-01-28T07:03:16.395Z,100657.50
2023-01-28T07:03:58.028Z,100641.53
2023-01-28T07:04:39.685Z,100649.03
2023-01-28T07:05:21.307Z,100633.41
2023-01-28T07:06:02.973Z,100659.63
2023-01-28T07:06:44.756Z,100641.25
2023-01-28T07:07:26.418Z,100649.75
2023-01-28T07:08:08.136Z,100637.69
2023-01-28T07:08:49.749Z,100659.19
2023-01-28T07:09:31.356Z,100661.78
2023-01-28T07:10:13.461Z,100649.88
2023-01-28T07:10:55.249Z,100636.63
2023-01-28T07:11:36.927Z,100656.44
2023-01-28T07:12:18.527Z,100621.50
2023-01-28T07:13:00.163Z,100629.72
2023-01-28T07:13:41.918Z,100655.72
2023-01-28T07:14:23.504Z,100658.34
2023-01-28T07:15:05.782Z,100657.28
2023-01-28T07:15:48.834Z,100665.03
2023-01-28T07:16:30.534Z,100664.91
2023-01-28T07:17:12.334Z,100654.56
2023-01-28T07:17:54.150Z,100636.03
2023-01-28T07:18:38.590Z,100641.50
2023-01-28T07:19:20.271Z,100656.53
2023-01-28T07:20:01.997Z,100627.56
2023-01-28T07:20:43.826Z,100649.09
2023-01-28T07:21:25.491Z,100654.00
2023-01-28T07:22:07.261Z,100666.97
2023-01-28T07:22:49.003Z,100656.38
2023-01-28T07:23:30.764Z,100657.81
2023-01-28T07:24:12.466Z,100636.72
2023-01-28T07:24:54.240Z,100661.78
2023-01-28T07:25:35.843Z,100660.72
2023-01-28T07:26:17.670Z,100641.00
2023-01-28T07:26:59.394Z,100665.09
2023-01-28T07:27:50.323Z,100661.66
2023-01-28T07:28:32.294Z,100620.75
2023-01-28T07:29:13.933Z,100617.66
2023-01-28T07:29:55.563Z,100645.44
2023-01-28T07:30:37.352Z,100656.88
2023-01-28T07:31:19.182Z,100650.34
2023-01-28T07:32:00.975Z,100644.16
2023-01-28T07:32:42.836Z,100653.94
2023-01-28T07:33:24.891Z,100644.88
2023-01-28T07:34:06.519Z,100665.38
2023-01-28T07:34:48.234Z,100658.38
2023-01-28T07:35:31.225Z,100664.94
2023-01-28T07:36:12.887Z,100664.94
2023-01-28T07:36:57.383Z,100665.78
2023-01-28T07:37:39.451Z,100671.00
2023-01-28T07:38:21.096Z,100664.81
2023-01-28T07:39:02.960Z,100664.94
2023-01-28T07:39:44.643Z,100649.88
2023-01-28T07:40:27.400Z,100673.75
2023-01-28T07:41:09.769Z,100669.78
2023-01-28T07:41:51.627Z,100660.63
2023-01-28T07:42:47.907Z,100643.31
2023-01-28T07:43:29.534Z,100663.47
2023-01-28T07:44:11.630Z,100671.00
2023-01-28T07:44:53.451Z,100667.28
2023-01-28T07:45:35.860Z,100674.19
2023-01-28T07:46:18.017Z,100660.13
2023-01-28T07:46:59.762Z,100673.97
2023-01-28T07:47:41.818Z,100660.25
2023-01-28T07:48:23.611Z,100673.63
2023-01-28T07:49:05.351Z,100656.81
2023-01-28T07:49:47.733Z,100674.31
2023-01-28T07:50:31.372Z,100668.13
2023-01-28T07:51:13.030Z,100643.34
2023-01-28T07:51:54.668Z,100677.66
2023-01-28T07:52:44.187Z,100676.63
2023-01-28T07:53:26.083Z,100648.84
2023-01-28T07:54:08.944Z,100653.50
2023-01-28T07:54:50.627Z,100650.50
2023-01-28T07:55:32.432Z,100676.63
2023-01-28T07:56:14.183Z,100670.19
2023-01-28T07:56:55.825Z,100674.94
2023-01-28T07:57:37.487Z,100680.19
2023-01-28T07:58:19.108Z,100666.59
2023-01-28T07:59:00.710Z,100678.41
2023-01-28T07:59:42.365Z,100628.34
2023-01-28T08:00:25.889Z,100681.13
2023-01-28T08:01:07.655Z,100678.50
2023-01-28T08:01:49.283Z,100668.72
2023-01-28T08:02:31.031Z,100684.00
2023-01-28T08:03:15.748Z,100681.59
2023-01-28T08:03:57.404Z,100664.09
2023-01-28T08:04:40.621Z,100673.47
2023-01-28T08:05:22.631Z,100684.13
2023-01-28T08:06:04.749Z,100680.66
2023-01-28T08:06:46.401Z,100642.00
2023-01-28T08:07:28.281Z,100635.34
2023-01-28T08:08:10.923Z,100682.06
2023-01-28T08:08:52.758Z,100669.56
2023-01-28T08:09:34.486Z,100681.00
2023-01-28T08:10:18.098Z,100675.88
2023-01-28T08:11:06.112Z,100662.41
2023-01-28T08:11:47.787Z,100689.47
2023-01-28T08:12:29.388Z,100666.19
2023-01-28T08:13:12.218Z,100686.47
2023-01-28T08:13:53.824Z,100680.50
2023-01-28T08:14:35.595Z,100682.16
2023-01-28T08:15:17.861Z,100652.00
2023-01-28T08:15:59.770Z,100685.88
2023-01-28T08:16:41.928Z,100678.47
2023-01-28T08:17:23.763Z,100686.53
2023-01-28T08:18:06.790Z,100685.94
2023-01-28T08:18:48.930Z,100672.81
2023-01-28T08:19:30.652Z,100643.59
2023-01-28T08:20:12.956Z,100677.59
2023-01-28T08:20:56.561Z,100667.44
2023-01-28T08:21:38.229Z,100671.72
2023-01-28T08:22:25.176Z,100669.63
2023-01-28T08:23:15.385Z,100692.41
2023-01-28T08:23:57.194Z,100659.72
2023-01-28T08:24:38.850Z,100677.00
2023-01-28T08:25:20.693Z,100675.13
2023-01-28T08:26:02.305Z,100685.72
2023-01-28T08:26:43.977Z,100691.81
2023-01-28T08:27:25.647Z,100690.84
2023-01-28T08:28:07.868Z,100689.91
2023-01-28T08:28:51.450Z,100694.19
2023-01-28T08:29:33.627Z,100693.16
2023-01-28T08:30:15.810Z,100698.16
2023-01-28T08:31:00.929Z,100681.31
2023-01-28T08:31:43.181Z,100695.06
2023-01-28T08:32:24.922Z,100672.53
2023-01-28T08:33:08.564Z,100695.56
2023-01-28T08:33:50.197Z,100697.34
2023-01-28T08:34:31.889Z,100703.06
2023-01-28T08:35:13.615Z,100680.53
2023-01-28T08:35:55.250Z,100676.94
2023-01-28T08:36:36.946Z,100697.72
2023-01-28T08:37:18.585Z,100679.72
2023-01-28T08:38:04.706Z,100698.06
2023-01-28T08:38:46.523Z,100677.78
2023-01-28T08:39:28.281Z,100708.19
2023-01-28T08:40:10.577Z,100671.47
2023-01-28T08:40:55.611Z,100665.59
2023-01-28T08:41:40.161Z,100707.97
2023-01-28T08:42:22.052Z,100680.19
2023-01-28T08:43:04.531Z,100683.31
2023-01-28T08:43:47.350Z,100706.69
2023-01-28T08:44:29.072Z,100701.44
2023-01-28T08:45:11.083Z,100700.81
2023-01-28T08:45:52.791Z,100649.19
2023-01-28T08:46:34.430Z,100696.66
2023-01-28T08:47:16.197Z,100701.78
2023-01-28T08:48:00.752Z,100679.00
2023-01-28T08:48:42.655Z,100701.44